Time,TemperatureF,DewpointF,PressureIn,WindDirection,WindDirectionDegrees,WindSpeedMPH,WindSpeedGustMPH,Humidity,HourlyPrecipIn,Conditions,Clouds,dailyrainin,SoftwareType,DateUTC
2013-02-22 00:00:00,32.5,28.0,30.30,SSE,158,8.0,10.0,83,-99.99,,,0.21,meteohub,2013-02-22 05:00:00,
2013-02-22 00:05:00,32.4,28.4,30.30,SSE,158,9.0,11.0,85,-99.99,,,0.21,meteohub,2013-02-22 05:05:00,
2013-02-22 00:10:00,32.4,28.4,30.30,SSE,158,8.0,11.0,85,-99.99,,,0.21,meteohub,2013-02-22 05:10:00,
2013-02-22 00:15:00,32.2,28.2,30.34,SSE,158,9.0,11.0,85,-99.99,,,0.21,meteohub,2013-02-22 05:15:00,
2013-02-22 00:20:00,32.0,28.2,30.34,SSE,158,7.0,11.0,86,-99.99,,,0.21,meteohub,2013-02-22 05:20:00,
2013-02-22 00:25:00,31.8,27.9,30.34,SSE,158,8.0,10.0,85,-99.99,,,0.21,meteohub,2013-02-22 05:25:00,
2013-02-22 00:30:00,31.6,28.2,30.31,SSE,158,7.0,10.0,87,-99.99,,,0.21,meteohub,2013-02-22 05:30:00,
2013-02-22 00:35:00,31.5,28.4,30.31,SSE,158,6.0,10.0,88,-99.99,,,0.21,meteohub,2013-02-22 05:35:00,
2013-02-22 00:40:00,31.5,28.6,30.31,SSE,158,9.0,9.0,89,-99.99,,,0.21,meteohub,2013-02-22 05:40:00,
2013-02-22 00:45:00,31.3,28.9,30.31,SSE,158,9.0,11.0,91,-99.99,,,0.21,meteohub,2013-02-22 05:45:00,
2013-02-22 00:50:00,31.1,29.3,30.31,SSE,158,8.0,11.0,93,-99.99,,,0.21,meteohub,2013-02-22 05:50:00,
2013-02-22 00:55:00,31.1,29.3,30.31,SSE,158,7.0,11.0,93,-99.99,,,0.21,meteohub,2013-02-22 05:55:00,
2013-02-22 01:00:00,31.1,29.8,30.31,SSE,158,0.0,9.0,95,-99.99,,,0.21,meteohub,2013-02-22 06:00:00,
2013-02-22 01:05:00,31.1,30.0,30.31,SSE,158,0.0,9.0,96,-99.99,,,0.21,meteohub,2013-02-22 06:05:00,
2013-02-22 01:10:00,31.1,30.0,30.31,SSE,158,0.0,7.0,96,-99.99,,,0.21,meteohub,2013-02-22 06:10:00,
2013-02-22 01:15:00,31.1,30.4,30.31,SSE,158,0.0,0.0,97,-99.99,,,0.21,meteohub,2013-02-22 06:15:00,
2013-02-22 01:20:00,31.1,30.4,30.31,SSE,158,0.0,0.0,97,-99.99,,,0.21,meteohub,2013-02-22 06:20:00,
2013-02-22 01:25:00,31.1,30.4,30.31,SSE,158,0.0,0.0,97,-99.99,,,0.21,meteohub,2013-02-22 06:25:00,
2013-02-22 01:30:00,31.1,30.6,30.31,SSE,158,0.0,0.0,98,-99.99,,,0.21,meteohub,2013-02-22 06:30:00,
2013-02-22 01:35:00,30.9,30.4,30.32,SSE,158,0.0,0.0,98,-99.99,,,0.21,meteohub,2013-02-22 06:35:00,
2013-02-22 01:40:00,30.9,30.4,30.32,SSE,158,0.0,0.0,98,-99.99,,,0.21,meteohub,2013-02-22 06:40:00,
2013-02-22 01:45:00,30.7,30.2,30.32,SSE,158,0.0,0.0,98,-99.99,,,0.21,meteohub,2013-02-22 06:45:00,
2013-02-22 01:50:00,30.6,30.0,30.32,SSE,158,0.0,0.0,98,-99.99,,,0.21,meteohub,2013-02-22 06:50:00,
2013-02-22 01:56:00,30.2,29.7,30.32,SSE,158,0.0,0.0,98,-99.99,,,0.21,meteohub,2013-02-22 06:56:00,
2013-02-22 02:01:00,30.2,29.7,30.32,SSE,158,0.0,0.0,98,-99.99,,,0.21,meteohub,2013-02-22 07:01:00,
2013-02-22 02:06:00,30.0,29.5,30.32,SSE,158,0.0,0.0,98,-99.99,,,0.21,meteohub,2013-02-22 07:06:00,
2013-02-22 02:11:00,30.0,29.5,30.32,SSE,158,0.0,0.0,98,-99.99,,,0.21,meteohub,2013-02-22 07:11:00,
2013-02-22 02:16:00,29.8,29.3,30.32,SSE,158,0.0,0.0,98,-99.99,,,0.21,meteohub,2013-02-22 07:16:00,
2013-02-22 02:21:00,29.8,29.3,30.32,SSE,158,0.0,0.0,98,-99.99,,,0.21,meteohub,2013-02-22 07:21:00,
2013-02-22 02:26:00,29.7,29.1,30.32,SSE,158,0.0,0.0,98,-99.99,,,0.21,meteohub,2013-02-22 07:26:00,
2013-02-22 02:31:00,29.7,29.1,30.29,SSE,158,0.0,0.0,98,-99.99,,,0.21,meteohub,2013-02-22 07:31:00,
2013-02-22 02:36:00,29.5,28.9,30.29,SSE,158,0.0,0.0,98,-99.99,,,0.21,meteohub,2013-02-22 07:36:00,
2013-02-22 02:41:00,29.8,29.3,30.29,SSE,158,0.0,0.0,98,-99.99,,,0.21,meteohub,2013-02-22 07:41:00,
2013-02-22 02:46:00,29.7,29.1,30.32,SSE,158,0.0,0.0,98,-99.99,,,0.21,meteohub,2013-02-22 07:46:00,
2013-02-22 02:51:00,29.7,29.1,30.32,SSE,158,0.0,0.0,98,-99.99,,,0.21,meteohub,2013-02-22 07:51:00,
2013-02-22 02:56:00,29.5,28.9,30.33,SSE,158,0.0,0.0,98,-99.99,,,0.21,meteohub,2013-02-22 07:56:00,
2013-02-22 03:01:00,29.1,28.6,30.30,SSE,158,0.0,0.0,98,-99.99,,,0.21,meteohub,2013-02-22 08:01:00,
2013-02-22 03:06:00,29.1,28.6,30.30,SSE,158,0.0,0.0,98,-99.99,,,0.21,meteohub,2013-02-22 08:06:00,
2013-02-22 03:11:00,29.1,28.6,30.30,SSE,158,0.0,0.0,98,-99.99,,,0.21,meteohub,2013-02-22 08:11:00,
2013-02-22 03:16:00,28.9,28.4,30.30,SSE,158,0.0,0.0,98,-99.99,,,0.21,meteohub,2013-02-22 08:16:00,
2013-02-22 03:21:00,28.9,28.4,30.30,SSE,158,0.0,0.0,98,-99.99,,,0.21,meteohub,2013-02-22 08:21:00,
2013-02-22 03:26:00,28.9,28.4,30.30,SSE,158,0.0,0.0,98,-99.99,,,0.21,meteohub,2013-02-22 08:26:00,
2013-02-22 03:31:00,28.9,28.4,30.30,SSE,158,0.0,0.0,98,-99.99,,,0.21,meteohub,2013-02-22 08:31:00,
2013-02-22 03:36:00,28.9,28.4,30.30,SSE,158,0.0,0.0,98,-99.99,,,0.21,meteohub,2013-02-22 08:36:00,
2013-02-22 03:41:00,28.9,28.4,30.30,SSE,158,0.0,0.0,98,-99.99,,,0.21,meteohub,2013-02-22 08:41:00,
2013-02-22 03:46:00,28.8,28.2,30.27,SSE,158,0.0,0.0,98,-99.99,,,0.21,meteohub,2013-02-22 08:46:00,
2013-02-22 03:51:00,28.9,28.4,30.26,SSE,158,0.0,0.0,98,-99.99,,,0.21,meteohub,2013-02-22 08:51:00,
2013-02-22 03:56:00,29.1,28.6,30.26,SSE,158,0.0,0.0,98,-99.99,,,0.21,meteohub,2013-02-22 08:56:00,
2013-02-22 04:01:00,29.1,28.6,30.30,SSE,158,0.0,0.0,98,-99.99,,,0.21,meteohub,2013-02-22 09:01:00,
2013-02-22 04:07:00,28.9,28.4,30.30,SSE,158,0.0,0.0,98,-99.99,,,0.21,meteohub,2013-02-22 09:07:00,
2013-02-22 04:11:00,28.9,28.4,30.30,SSE,158,0.0,0.0,98,-99.99,,,0.21,meteohub,2013-02-22 09:11:00,
2013-02-22 04:17:00,29.1,28.6,30.30,SSE,158,0.0,0.0,98,-99.99,,,0.21,meteohub,2013-02-22 09:17:00,
2013-02-22 04:22:00,28.9,28.4,30.30,SSE,158,0.0,0.0,98,-99.99,,,0.21,meteohub,2013-02-22 09:22:00,
2013-02-22 04:27:00,28.9,28.4,30.30,SSE,158,0.0,0.0,98,-99.99,,,0.21,meteohub,2013-02-22 09:27:00,
2013-02-22 04:32:00,28.8,28.2,30.27,SSE,158,0.0,0.0,98,-99.99,,,0.21,meteohub,2013-02-22 09:32:00,
2013-02-22 04:37:00,28.6,28.0,30.27,SSE,158,0.0,0.0,98,-99.99,,,0.21,meteohub,2013-02-22 09:37:00,
2013-02-22 04:42:00,28.6,28.0,30.27,SSE,158,0.0,0.0,98,-99.99,,,0.21,meteohub,2013-02-22 09:42:00,
2013-02-22 04:47:00,28.6,28.0,30.30,SSE,158,0.0,0.0,98,-99.99,,,0.21,meteohub,2013-02-22 09:47:00,
2013-02-22 04:52:00,28.6,28.0,30.30,SSE,158,0.0,0.0,98,-99.99,,,0.21,meteohub,2013-02-22 09:52:00,
2013-02-22 04:57:00,28.9,28.4,30.30,SSE,158,0.0,0.0,98,-99.99,,,0.21,meteohub,2013-02-22 09:57:00,
2013-02-22 05:02:00,28.9,28.4,30.26,SSE,158,0.0,0.0,98,-99.99,,,0.21,meteohub,2013-02-22 10:02:00,
2013-02-22 05:07:00,28.9,28.4,30.26,SSE,158,0.0,0.0,98,-99.99,,,0.21,meteohub,2013-02-22 10:07:00,
2013-02-22 05:12:00,28.8,28.2,30.27,SSE,158,0.0,0.0,98,-99.99,,,0.21,meteohub,2013-02-22 10:12:00,
2013-02-22 05:17:00,28.6,28.0,30.27,SSE,158,0.0,0.0,98,-99.99,,,0.21,meteohub,2013-02-22 10:17:00,
2013-02-22 05:22:00,28.6,28.0,30.27,SSE,158,0.0,0.0,98,-99.99,,,0.21,meteohub,2013-02-22 10:22:00,
2013-02-22 05:27:00,28.4,27.9,30.27,SSE,158,0.0,0.0,98,-99.99,,,0.21,meteohub,2013-02-22 10:27:00,
2013-02-22 05:32:00,28.4,27.9,30.27,SSE,158,0.0,0.0,98,-99.99,,,0.21,meteohub,2013-02-22 10:32:00,
2013-02-22 05:37:00,28.6,28.0,30.27,SSE,158,0.0,0.0,98,-99.99,,,0.21,meteohub,2013-02-22 10:37:00,
2013-02-22 05:42:00,28.6,28.0,30.27,SSE,158,0.0,0.0,98,-99.99,,,0.21,meteohub,2013-02-22 10:42:00,
2013-02-22 05:47:00,28.6,28.0,30.27,SSE,158,0.0,0.0,98,-99.99,,,0.21,meteohub,2013-02-22 10:47:00,
2013-02-22 05:52:00,28.8,28.2,30.27,SSE,158,0.0,0.0,98,-99.99,,,0.21,meteohub,2013-02-22 10:52:00,
2013-02-22 05:57:00,28.9,28.4,30.26,SSE,158,0.0,0.0,98,-99.99,,,0.21,meteohub,2013-02-22 10:57:00,
2013-02-22 06:02:00,28.9,28.4,30.30,SSE,158,0.0,0.0,98,-99.99,,,0.21,meteohub,2013-02-22 11:02:00,
2013-02-22 06:07:00,28.9,28.4,30.30,SSE,158,0.0,0.0,98,-99.99,,,0.21,meteohub,2013-02-22 11:07:00,
2013-02-22 06:12:00,28.8,28.2,30.30,SSE,158,0.0,0.0,98,-99.99,,,0.21,meteohub,2013-02-22 11:12:00,
2013-02-22 06:17:00,28.8,28.2,30.30,SSE,158,0.0,0.0,98,-99.99,,,0.21,meteohub,2013-02-22 11:17:00,
2013-02-22 06:22:00,28.8,28.2,30.30,SSE,158,0.0,0.0,98,-99.99,,,0.21,meteohub,2013-02-22 11:22:00,
2013-02-22 06:27:00,28.8,28.2,30.30,SSE,158,0.0,0.0,98,-99.99,,,0.21,meteohub,2013-02-22 11:27:00,
2013-02-22 06:32:00,28.6,28.0,30.30,SSE,158,0.0,0.0,98,-99.99,,,0.21,meteohub,2013-02-22 11:32:00,
2013-02-22 06:37:00,28.6,28.0,30.30,SSE,158,0.0,0.0,98,-99.99,,,0.21,meteohub,2013-02-22 11:37:00,
2013-02-22 06:42:00,28.8,28.2,30.30,SSE,158,0.0,0.0,98,-99.99,,,0.21,meteohub,2013-02-22 11:42:00,
2013-02-22 06:47:00,28.8,28.2,30.30,SSE,158,0.0,0.0,98,-99.99,,,0.21,meteohub,2013-02-22 11:47:00,
2013-02-22 06:52:00,28.8,28.2,30.30,SSE,158,0.0,0.0,98,-99.99,,,0.21,meteohub,2013-02-22 11:52:00,
2013-02-22 06:57:00,28.6,28.0,30.30,SSE,158,0.0,0.0,98,-99.99,,,0.21,meteohub,2013-02-22 11:57:00,
2013-02-22 07:02:00,28.6,28.0,30.30,SSE,158,0.0,0.0,98,-99.99,,,0.21,meteohub,2013-02-22 12:02:00,
2013-02-22 07:07:00,28.6,28.0,30.30,SSE,158,0.0,0.0,98,-99.99,,,0.21,meteohub,2013-02-22 12:07:00,
2013-02-22 07:12:00,28.6,28.0,30.30,SSE,158,0.0,0.0,98,-99.99,,,0.21,meteohub,2013-02-22 12:12:00,
2013-02-22 07:17:00,28.6,28.0,30.30,SSE,158,0.0,0.0,98,-99.99,,,0.21,meteohub,2013-02-22 12:17:00,
2013-02-22 07:22:00,28.4,27.9,30.30,SSE,158,0.0,0.0,98,-99.99,,,0.21,meteohub,2013-02-22 12:22:00,
2013-02-22 07:27:00,28.4,27.9,30.30,SSE,158,0.0,0.0,98,-99.99,,,0.21,meteohub,2013-02-22 12:27:00,
2013-02-22 07:32:00,28.4,27.9,30.30,SSE,158,0.0,0.0,98,-99.99,,,0.21,meteohub,2013-02-22 12:32:00,
2013-02-22 07:37:00,28.4,27.9,30.30,SSE,158,0.0,0.0,98,-99.99,,,0.21,meteohub,2013-02-22 12:37:00,
2013-02-22 07:42:00,28.4,27.9,30.30,SSE,158,0.0,0.0,98,-99.99,,,0.21,meteohub,2013-02-22 12:42:00,
2013-02-22 07:47:00,28.4,27.9,30.30,SSE,158,0.0,0.0,98,-99.99,,,0.21,meteohub,2013-02-22 12:47:00,
2013-02-22 07:52:00,28.4,27.9,30.30,SSE,158,0.0,0.0,98,-99.99,,,0.21,meteohub,2013-02-22 12:52:00,
2013-02-22 07:57:00,28.4,27.9,30.30,SSE,158,0.0,0.0,98,-99.99,,,0.21,meteohub,2013-02-22 12:57:00,
2013-02-22 08:02:00,28.4,27.9,30.30,SSE,158,0.0,0.0,98,-99.99,,,0.21,meteohub,2013-02-22 13:02:00,
2013-02-22 08:07:00,28.6,28.0,30.30,SSE,158,0.0,0.0,98,-99.99,,,0.21,meteohub,2013-02-22 13:07:00,
2013-02-22 08:12:00,28.6,28.0,30.30,SSE,158,0.0,0.0,98,-99.99,,,0.21,meteohub,2013-02-22 13:12:00,
2013-02-22 08:17:00,28.8,28.2,30.30,SSE,158,0.0,0.0,98,-99.99,,,0.21,meteohub,2013-02-22 13:17:00,
2013-02-22 08:22:00,28.8,28.2,30.30,SSE,158,0.0,0.0,98,-99.99,,,0.21,meteohub,2013-02-22 13:22:00,
2013-02-22 08:27:00,28.8,28.2,30.30,SSE,158,0.0,0.0,98,-99.99,,,0.21,meteohub,2013-02-22 13:27:00,
2013-02-22 08:32:00,28.9,28.4,30.30,SSE,158,0.0,0.0,98,-99.99,,,0.21,meteohub,2013-02-22 13:32:00,
2013-02-22 08:37:00,29.1,28.6,30.30,SSE,158,0.0,0.0,98,-99.99,,,0.21,meteohub,2013-02-22 13:37:00,
2013-02-22 08:42:00,29.1,28.6,30.30,SSE,158,0.0,0.0,98,-99.99,,,0.21,meteohub,2013-02-22 13:42:00,
2013-02-22 08:47:00,29.1,28.6,30.30,SSE,158,0.0,0.0,98,-99.99,,,0.21,meteohub,2013-02-22 13:47:00,
2013-02-22 08:52:00,29.1,28.6,30.30,SSE,158,0.0,0.0,98,-99.99,,,0.21,meteohub,2013-02-22 13:52:00,
2013-02-22 08:57:00,29.1,28.6,30.30,SSE,158,0.0,0.0,98,-99.99,,,0.21,meteohub,2013-02-22 13:57:00,
2013-02-22 09:02:00,29.3,28.8,30.30,SSE,158,0.0,0.0,98,-99.99,,,0.21,meteohub,2013-02-22 14:02:00,
2013-02-22 09:07:00,29.3,28.8,30.30,SSE,158,0.0,0.0,98,-99.99,,,0.21,meteohub,2013-02-22 14:07:00,
2013-02-22 09:12:00,29.3,28.8,30.30,SSE,158,0.0,0.0,98,-99.99,,,0.21,meteohub,2013-02-22 14:12:00,
2013-02-22 09:17:00,29.5,28.9,30.29,SSE,158,0.0,0.0,98,-99.99,,,0.21,meteohub,2013-02-22 14:17:00,
2013-02-22 09:22:00,29.7,29.1,30.29,SSE,158,0.0,0.0,98,-99.99,,,0.21,meteohub,2013-02-22 14:22:00,
2013-02-22 09:27:00,29.5,28.9,30.29,SSE,158,0.0,0.0,98,-99.99,,,0.21,meteohub,2013-02-22 14:27:00,
2013-02-22 09:32:00,29.7,29.1,30.29,SSE,158,0.0,0.0,98,-99.99,,,0.21,meteohub,2013-02-22 14:32:00,
2013-02-22 09:37:00,29.7,29.1,30.29,SSE,158,0.0,0.0,98,-99.99,,,0.21,meteohub,2013-02-22 14:37:00,
2013-02-22 09:42:00,29.8,29.3,30.29,SSE,158,0.0,0.0,98,-99.99,,,0.21,meteohub,2013-02-22 14:42:00,
2013-02-22 09:47:00,30.0,29.5,30.29,SSE,158,0.0,0.0,98,-99.99,,,0.21,meteohub,2013-02-22 14:47:00,
2013-02-22 09:52:00,30.2,29.7,30.29,SSE,158,0.0,0.0,98,-99.99,,,0.21,meteohub,2013-02-22 14:52:00,
2013-02-22 09:57:00,30.4,29.8,30.29,SSE,158,0.0,0.0,98,-99.99,,,0.21,meteohub,2013-02-22 14:57:00,
2013-02-22 10:02:00,30.6,30.0,30.28,SSE,158,0.0,0.0,98,-99.99,,,0.21,meteohub,2013-02-22 15:02:00,
2013-02-22 10:07:00,30.7,30.2,30.28,SSE,158,0.0,0.0,98,-99.99,,,0.21,meteohub,2013-02-22 15:07:00,
2013-02-22 10:12:00,30.9,30.4,30.28,SSE,158,0.0,0.0,98,-99.99,,,0.21,meteohub,2013-02-22 15:12:00,
2013-02-22 10:17:00,30.7,30.2,30.28,SSE,158,0.0,0.0,98,-99.99,,,0.21,meteohub,2013-02-22 15:17:00,
2013-02-22 10:22:00,30.6,30.0,30.28,SSE,158,0.0,0.0,98,-99.99,,,0.21,meteohub,2013-02-22 15:22:00,
2013-02-22 10:27:00,30.6,30.0,30.28,SSE,158,0.0,0.0,98,-99.99,,,0.21,meteohub,2013-02-22 15:27:00,
2013-02-22 10:32:00,30.6,30.0,30.28,SSE,158,0.0,0.0,98,-99.99,,,0.21,meteohub,2013-02-22 15:32:00,
2013-02-22 10:37:00,30.6,30.0,30.28,SSE,158,0.0,0.0,98,-99.99,,,0.21,meteohub,2013-02-22 15:37:00,
2013-02-22 10:42:00,30.6,30.0,30.28,SSE,158,0.0,0.0,98,-99.99,,,0.21,meteohub,2013-02-22 15:42:00,
2013-02-22 10:47:00,30.7,30.2,30.28,SSE,158,0.0,0.0,98,-99.99,,,0.21,meteohub,2013-02-22 15:47:00,
2013-02-22 10:52:00,30.7,30.2,30.28,SSE,158,0.0,0.0,98,-99.99,,,0.21,meteohub,2013-02-22 15:52:00,
2013-02-22 10:57:00,30.9,30.4,30.28,SSE,158,0.0,0.0,98,-99.99,,,0.21,meteohub,2013-02-22 15:57:00,
2013-02-22 11:02:00,31.1,30.6,30.28,SSE,158,0.0,0.0,98,-99.99,,,0.21,meteohub,2013-02-22 16:02:00,
2013-02-22 11:07:00,31.3,30.7,30.28,SSE,158,0.0,0.0,98,-99.99,,,0.21,meteohub,2013-02-22 16:07:00,
2013-02-22 11:12:00,31.3,30.7,30.28,SSE,158,0.0,0.0,98,-99.99,,,0.21,meteohub,2013-02-22 16:12:00,
2013-02-22 11:17:00,31.8,31.3,30.27,SSE,158,0.0,0.0,98,-99.99,,,0.21,meteohub,2013-02-22 16:17:00,
2013-02-22 11:22:00,32.0,31.5,30.27,SSE,158,0.0,0.0,98,-99.99,,,0.21,meteohub,2013-02-22 16:22:00,
2013-02-22 11:27:00,31.8,31.3,30.27,SSE,158,0.0,0.0,98,-99.99,,,0.21,meteohub,2013-02-22 16:27:00,
2013-02-22 11:32:00,32.2,31.6,30.27,SSE,158,0.0,0.0,98,-99.99,,,0.21,meteohub,2013-02-22 16:32:00,
2013-02-22 11:37:00,31.8,31.3,30.27,SSE,158,0.0,0.0,98,-99.99,,,0.21,meteohub,2013-02-22 16:37:00,
2013-02-22 11:42:00,31.8,31.3,30.27,SSE,158,0.0,0.0,98,-99.99,,,0.21,meteohub,2013-02-22 16:42:00,
2013-02-22 11:47:00,31.8,31.3,30.27,SSE,158,0.0,0.0,98,-99.99,,,0.21,meteohub,2013-02-22 16:47:00,
2013-02-22 11:52:00,31.8,31.3,30.27,SSE,158,0.0,0.0,98,-99.99,,,0.21,meteohub,2013-02-22 16:52:00,
2013-02-22 11:57:00,31.8,31.3,30.27,SSE,158,0.0,0.0,98,-99.99,,,0.21,meteohub,2013-02-22 16:57:00,
2013-02-22 12:02:00,31.6,31.1,30.27,SSE,158,0.0,0.0,98,-99.99,,,0.21,meteohub,2013-02-22 17:02:00,
2013-02-22 12:07:00,31.5,30.9,30.27,SSE,158,0.0,0.0,98,-99.99,,,0.21,meteohub,2013-02-22 17:07:00,
2013-02-22 12:12:00,31.6,31.1,30.27,SSE,158,0.0,0.0,98,-99.99,,,0.21,meteohub,2013-02-22 17:12:00,
2013-02-22 12:17:00,31.5,30.9,30.24,SSE,158,0.0,0.0,98,-99.99,,,0.21,meteohub,2013-02-22 17:17:00,
2013-02-22 12:22:00,31.5,30.9,30.24,SSE,158,0.0,0.0,98,-99.99,,,0.21,meteohub,2013-02-22 17:22:00,
2013-02-22 12:27:00,31.5,30.9,30.24,SSE,158,0.0,0.0,98,-99.99,,,0.21,meteohub,2013-02-22 17:27:00,
2013-02-22 12:32:00,31.5,30.9,30.24,SSE,158,0.0,0.0,98,-99.99,,,0.21,meteohub,2013-02-22 17:32:00,
2013-02-22 12:37:00,31.5,30.9,30.24,SSE,158,0.0,0.0,98,-99.99,,,0.21,meteohub,2013-02-22 17:37:00,
2013-02-22 12:42:00,31.5,30.9,30.24,SSE,158,0.0,0.0,98,-99.99,,,0.21,meteohub,2013-02-22 17:42:00,
2013-02-22 12:47:00,31.3,30.7,30.24,SSE,158,0.0,0.0,98,-99.99,,,0.21,meteohub,2013-02-22 17:47:00,
2013-02-22 12:52:00,31.3,30.7,30.24,SSE,158,0.0,0.0,98,-99.99,,,0.21,meteohub,2013-02-22 17:52:00,
2013-02-22 12:57:00,31.3,30.7,30.24,SSE,158,0.0,0.0,98,-99.99,,,0.21,meteohub,2013-02-22 17:57:00,
2013-02-22 13:02:00,31.3,30.7,30.24,SSE,158,0.0,0.0,98,-99.99,,,0.21,meteohub,2013-02-22 18:02:00,
2013-02-22 13:07:00,31.3,30.7,30.24,SSE,158,0.0,0.0,98,-99.99,,,0.21,meteohub,2013-02-22 18:07:00,
2013-02-22 13:12:00,31.3,30.7,30.24,SSE,158,0.0,0.0,98,-99.99,,,0.21,meteohub,2013-02-22 18:12:00,
2013-02-22 13:17:00,31.3,30.7,30.24,SSE,158,0.0,0.0,98,-99.99,,,0.21,meteohub,2013-02-22 18:17:00,
2013-02-22 13:22:00,31.3,30.7,30.24,SSE,158,0.0,0.0,98,-99.99,,,0.21,meteohub,2013-02-22 18:22:00,
2013-02-22 13:27:00,31.3,30.7,30.24,SSE,158,0.0,0.0,98,-99.99,,,0.21,meteohub,2013-02-22 18:27:00,
2013-02-22 13:32:00,31.5,30.9,30.24,SSE,158,0.0,0.0,98,-99.99,,,0.21,meteohub,2013-02-22 18:32:00,
2013-02-22 13:37:00,31.5,30.9,30.24,SSE,158,0.0,0.0,98,-99.99,,,0.21,meteohub,2013-02-22 18:37:00,
2013-02-22 13:42:00,31.5,30.9,30.24,SSE,158,0.0,0.0,98,-99.99,,,0.21,meteohub,2013-02-22 18:42:00,
2013-02-22 13:47:00,31.5,30.9,30.24,SSE,158,0.0,0.0,98,-99.99,,,0.21,meteohub,2013-02-22 18:47:00,
2013-02-22 13:52:00,31.3,30.7,30.24,SSE,158,0.0,0.0,98,-99.99,,,0.21,meteohub,2013-02-22 18:52:00,
2013-02-22 13:57:00,31.3,30.7,30.24,SSE,158,0.0,0.0,98,-99.99,,,0.21,meteohub,2013-02-22 18:57:00,
2013-02-22 14:02:00,31.3,30.7,30.24,SSE,158,0.0,0.0,98,-99.99,,,0.21,meteohub,2013-02-22 19:02:00,
2013-02-22 14:07:00,32.0,31.5,30.24,SSE,158,0.0,0.0,98,-99.99,,,0.21,meteohub,2013-02-22 19:07:00,
2013-02-22 14:12:00,32.5,32.0,30.23,SSE,158,0.0,0.0,98,-99.99,,,0.21,meteohub,2013-02-22 19:12:00,
2013-02-22 14:17:00,32.7,32.2,30.20,SSE,158,0.0,0.0,98,-99.99,,,0.21,meteohub,2013-02-22 19:17:00,
2013-02-22 14:22:00,33.1,32.5,30.19,SSE,158,0.0,0.0,98,-99.99,,,0.21,meteohub,2013-02-22 19:22:00,
2013-02-22 14:27:00,32.9,32.4,30.19,SSE,158,0.0,0.0,98,-99.99,,,0.21,meteohub,2013-02-22 19:27:00,
2013-02-22 14:32:00,32.5,32.0,30.20,SSE,158,0.0,0.0,98,-99.99,,,0.21,meteohub,2013-02-22 19:32:00,
2013-02-22 14:37:00,32.4,31.8,30.20,SSE,158,0.0,0.0,98,-99.99,,,0.21,meteohub,2013-02-22 19:37:00,
2013-02-22 14:42:00,32.2,31.6,30.20,SSE,158,0.0,0.0,98,-99.99,,,0.21,meteohub,2013-02-22 19:42:00,
2013-02-22 14:47:00,32.7,32.2,30.20,SSE,158,0.0,0.0,98,-99.99,,,0.21,meteohub,2013-02-22 19:47:00,
2013-02-22 14:52:00,32.5,32.0,30.20,SSE,158,0.0,0.0,98,-99.99,,,0.21,meteohub,2013-02-22 19:52:00,
2013-02-22 14:57:00,32.7,32.2,30.20,SSE,158,0.0,0.0,98,-99.99,,,0.21,meteohub,2013-02-22 19:57:00,
2013-02-22 15:02:00,32.9,32.4,30.19,SSE,158,0.0,0.0,98,-99.99,,,0.21,meteohub,2013-02-22 20:02:00,
2013-02-22 15:07:00,33.3,32.7,30.19,SSE,158,0.0,0.0,98,-99.99,,,0.21,meteohub,2013-02-22 20:07:00,
2013-02-22 15:12:00,33.4,32.9,30.19,SSE,158,0.0,0.0,98,-99.99,,,0.21,meteohub,2013-02-22 20:12:00,
2013-02-22 15:17:00,33.4,32.9,30.19,SSE,158,0.0,0.0,98,-99.99,,,0.21,meteohub,2013-02-22 20:17:00,
2013-02-22 15:22:00,34.0,33.4,30.19,SSE,158,0.0,0.0,98,-99.99,,,0.21,meteohub,2013-02-22 20:22:00,
2013-02-22 15:27:00,34.2,33.6,30.18,SSE,158,0.0,0.0,98,-99.99,,,0.21,meteohub,2013-02-22 20:27:00,
2013-02-22 15:32:00,34.3,33.8,30.18,SSE,158,0.0,0.0,98,-99.99,,,0.21,meteohub,2013-02-22 20:32:00,
2013-02-22 15:37:00,34.9,34.3,30.18,SSE,158,0.0,0.0,98,-99.99,,,0.21,meteohub,2013-02-22 20:37:00,
2013-02-22 15:42:00,35.4,34.9,30.17,SSE,158,0.0,0.0,98,-99.99,,,0.21,meteohub,2013-02-22 20:42:00,
2013-02-22 15:47:00,35.2,34.7,30.17,SSE,158,0.0,0.0,98,-99.99,,,0.21,meteohub,2013-02-22 20:47:00,
2013-02-22 15:52:00,35.4,34.9,30.17,SSE,158,0.0,0.0,98,-99.99,,,0.21,meteohub,2013-02-22 20:52:00,
2013-02-22 15:57:00,35.6,35.1,30.17,SSE,158,0.0,0.0,98,-99.99,,,0.21,meteohub,2013-02-22 20:57:00,
2013-02-22 16:02:00,35.8,35.2,30.17,SSE,158,0.0,0.0,98,-99.99,,,0.21,meteohub,2013-02-22 21:02:00,
2013-02-22 16:07:00,35.8,35.2,30.17,SSE,158,0.0,0.0,98,-99.99,,,0.21,meteohub,2013-02-22 21:07:00,
2013-02-22 16:12:00,34.7,34.2,30.18,SSE,158,0.0,0.0,98,-99.99,,,0.21,meteohub,2013-02-22 21:12:00,
2013-02-22 16:17:00,34.0,33.4,30.19,SSE,158,0.0,0.0,98,-99.99,,,0.21,meteohub,2013-02-22 21:17:00,
2013-02-22 16:22:00,33.1,32.5,30.19,SSE,158,0.0,0.0,98,-99.99,,,0.21,meteohub,2013-02-22 21:22:00,
2013-02-22 16:27:00,32.7,32.2,30.20,SSE,158,0.0,0.0,98,-99.99,,,0.21,meteohub,2013-02-22 21:27:00,
2013-02-22 16:32:00,32.4,31.8,30.20,SSE,158,0.0,0.0,98,-99.99,,,0.21,meteohub,2013-02-22 21:32:00,
2013-02-22 16:37:00,32.2,31.6,30.20,SSE,158,0.0,0.0,98,-99.99,,,0.21,meteohub,2013-02-22 21:37:00,
2013-02-22 16:42:00,31.8,31.3,30.20,SSE,158,0.0,0.0,98,-99.99,,,0.21,meteohub,2013-02-22 21:42:00,
2013-02-22 16:47:00,31.6,31.1,30.21,SSE,158,0.0,0.0,98,-99.99,,,0.21,meteohub,2013-02-22 21:47:00,
2013-02-22 16:52:00,31.5,30.9,30.21,SSE,158,0.0,0.0,98,-99.99,,,0.21,meteohub,2013-02-22 21:52:00,
2013-02-22 16:57:00,31.3,30.7,30.21,SSE,158,0.0,0.0,98,-99.99,,,0.21,meteohub,2013-02-22 21:57:00,
2013-02-22 17:02:00,31.3,30.7,30.21,SSE,158,0.0,0.0,98,-99.99,,,0.21,meteohub,2013-02-22 22:02:00,
2013-02-22 17:07:00,31.3,30.7,30.21,SSE,158,0.0,0.0,98,-99.99,,,0.21,meteohub,2013-02-22 22:07:00,
2013-02-22 17:12:00,31.1,30.6,30.21,SSE,158,0.0,0.0,98,-99.99,,,0.21,meteohub,2013-02-22 22:12:00,
2013-02-22 17:17:00,31.1,30.6,30.21,SSE,158,0.0,0.0,98,-99.99,,,0.21,meteohub,2013-02-22 22:17:00,
2013-02-22 17:22:00,31.1,30.6,30.21,SSE,158,0.0,0.0,98,-99.99,,,0.21,meteohub,2013-02-22 22:22:00,
2013-02-22 17:27:00,31.1,30.6,30.21,SSE,158,0.0,0.0,98,-99.99,,,0.21,meteohub,2013-02-22 22:27:00,
2013-02-22 17:32:00,31.1,30.6,30.21,SSE,158,0.0,0.0,98,-99.99,,,0.21,meteohub,2013-02-22 22:32:00,
2013-02-22 17:37:00,31.1,30.6,30.21,SSE,158,0.0,0.0,98,-99.99,,,0.21,meteohub,2013-02-22 22:37:00,
2013-02-22 17:42:00,31.1,30.6,30.21,SSE,158,0.0,0.0,98,-99.99,,,0.21,meteohub,2013-02-22 22:42:00,
2013-02-22 17:47:00,31.1,30.6,30.21,SSE,158,0.0,0.0,98,-99.99,,,0.21,meteohub,2013-02-22 22:47:00,
2013-02-22 17:52:00,30.9,30.4,30.21,SSE,158,0.0,0.0,98,-99.99,,,0.21,meteohub,2013-02-22 22:52:00,
2013-02-22 17:57:00,30.9,30.4,30.21,SSE,158,0.0,0.0,98,-99.99,,,0.21,meteohub,2013-02-22 22:57:00,
2013-02-22 18:02:00,30.9,30.4,30.21,SSE,158,0.0,0.0,98,-99.99,,,0.21,meteohub,2013-02-22 23:02:00,
2013-02-22 18:07:00,30.9,30.4,30.21,SSE,158,0.0,0.0,98,-99.99,,,0.21,meteohub,2013-02-22 23:07:00,
2013-02-22 18:12:00,31.1,30.6,30.21,SSE,158,0.0,0.0,98,-99.99,,,0.21,meteohub,2013-02-22 23:12:00,
2013-02-22 18:17:00,31.1,30.6,30.21,SSE,158,0.0,0.0,98,-99.99,,,0.21,meteohub,2013-02-22 23:17:00,
2013-02-22 18:22:00,31.1,30.6,30.21,SSE,158,0.0,0.0,98,-99.99,,,0.21,meteohub,2013-02-22 23:22:00,
2013-02-22 18:27:00,30.9,30.4,30.21,SSE,158,0.0,0.0,98,-99.99,,,0.21,meteohub,2013-02-22 23:27:00,
2013-02-22 18:32:00,30.9,30.4,30.21,SSE,158,0.0,0.0,98,-99.99,,,0.21,meteohub,2013-02-22 23:32:00,
2013-02-22 18:37:00,30.9,30.4,30.21,SSE,158,0.0,0.0,98,-99.99,,,0.21,meteohub,2013-02-22 23:37:00,
2013-02-22 18:42:00,31.1,30.6,30.21,SSE,158,0.0,0.0,98,-99.99,,,0.21,meteohub,2013-02-22 23:42:00,
2013-02-22 18:47:00,30.9,30.4,30.21,SSE,158,0.0,0.0,98,-99.99,,,0.21,meteohub,2013-02-22 23:47:00,
2013-02-22 18:52:00,30.9,30.4,30.21,SSE,158,0.0,0.0,98,-99.99,,,0.21,meteohub,2013-02-22 23:52:00,
2013-02-22 18:57:00,30.9,30.4,30.21,SSE,158,0.0,0.0,98,-99.99,,,0.21,meteohub,2013-02-22 23:57:00,
2013-02-22 19:02:00,30.9,30.4,30.21,SSE,158,0.0,0.0,98,-99.99,,,0.21,meteohub,2013-02-23 00:02:00,
2013-02-22 19:07:00,30.9,30.4,30.21,SSE,158,0.0,0.0,98,-99.99,,,0.21,meteohub,2013-02-23 00:07:00,
2013-02-22 19:12:00,30.9,30.4,30.21,SSE,158,0.0,0.0,98,-99.99,,,0.21,meteohub,2013-02-23 00:12:00,
2013-02-22 19:17:00,30.9,30.4,30.21,SSE,158,0.0,0.0,98,-99.99,,,0.21,meteohub,2013-02-23 00:17:00,
2013-02-22 19:22:00,30.9,30.4,30.21,SSE,158,0.0,0.0,98,-99.99,,,0.21,meteohub,2013-02-23 00:22:00,
2013-02-22 19:27:00,30.7,30.2,30.21,SSE,158,0.0,0.0,98,-99.99,,,0.21,meteohub,2013-02-23 00:27:00,
2013-02-22 19:32:00,30.7,30.2,30.21,SSE,158,0.0,0.0,98,-99.99,,,0.21,meteohub,2013-02-23 00:32:00,
2013-02-22 19:37:00,30.7,30.2,30.21,SSE,158,0.0,0.0,98,-99.99,,,0.21,meteohub,2013-02-23 00:37:00,
2013-02-22 19:42:00,30.7,30.2,30.21,SSE,158,0.0,0.0,98,-99.99,,,0.21,meteohub,2013-02-23 00:42:00,
2013-02-22 19:47:00,30.7,30.2,30.21,SSE,158,0.0,0.0,98,-99.99,,,0.21,meteohub,2013-02-23 00:47:00,
2013-02-22 19:52:00,30.7,30.2,30.21,SSE,158,0.0,0.0,98,-99.99,,,0.21,meteohub,2013-02-23 00:52:00,
2013-02-22 19:57:00,30.7,30.2,30.21,SSE,158,0.0,0.0,98,-99.99,,,0.21,meteohub,2013-02-23 00:57:00,
2013-02-22 20:02:00,30.7,30.2,30.21,SSE,158,0.0,0.0,98,-99.99,,,0.21,meteohub,2013-02-23 01:02:00,
2013-02-22 20:07:00,30.7,30.2,30.21,SSE,158,0.0,0.0,98,-99.99,,,0.21,meteohub,2013-02-23 01:07:00,
2013-02-22 20:12:00,30.7,30.2,30.21,SSE,158,0.0,0.0,98,-99.99,,,0.21,meteohub,2013-02-23 01:12:00,
2013-02-22 20:17:00,30.7,30.2,30.21,SSE,158,0.0,0.0,98,-99.99,,,0.21,meteohub,2013-02-23 01:17:00,
2013-02-22 20:22:00,30.7,30.2,30.21,SSE,158,0.0,0.0,98,-99.99,,,0.21,meteohub,2013-02-23 01:22:00,
2013-02-22 20:27:00,30.7,30.2,30.21,SSE,158,0.0,0.0,98,-99.99,,,0.21,meteohub,2013-02-23 01:27:00,
2013-02-22 20:32:00,30.7,30.2,30.21,SSE,158,0.0,0.0,98,-99.99,,,0.21,meteohub,2013-02-23 01:32:00,
2013-02-22 20:37:00,30.6,30.0,30.22,SSE,158,0.0,0.0,98,-99.99,,,0.21,meteohub,2013-02-23 01:37:00,
2013-02-22 20:42:00,30.6,30.0,30.22,SSE,158,0.0,0.0,98,-99.99,,,0.21,meteohub,2013-02-23 01:42:00,
2013-02-22 20:47:00,30.6,30.0,30.22,SSE,158,0.0,0.0,98,-99.99,,,0.21,meteohub,2013-02-23 01:47:00,
2013-02-22 20:52:00,30.6,30.0,30.22,SSE,158,0.0,0.0,98,-99.99,,,0.21,meteohub,2013-02-23 01:52:00,
2013-02-22 20:57:00,30.6,30.0,30.22,SSE,158,0.0,0.0,98,-99.99,,,0.21,meteohub,2013-02-23 01:57:00,
2013-02-22 21:02:00,30.6,30.0,30.22,SSE,158,0.0,0.0,98,-99.99,,,0.21,meteohub,2013-02-23 02:02:00,
2013-02-22 21:07:00,30.6,30.0,30.22,SSE,158,0.0,0.0,98,-99.99,,,0.21,meteohub,2013-02-23 02:07:00,
2013-02-22 21:12:00,30.6,30.0,30.22,SSE,158,0.0,0.0,98,-99.99,,,0.21,meteohub,2013-02-23 02:12:00,
2013-02-22 21:17:00,30.6,30.0,30.22,SSE,158,0.0,0.0,98,-99.99,,,0.21,meteohub,2013-02-23 02:17:00,
2013-02-22 21:22:00,30.6,30.0,30.22,SSE,158,0.0,0.0,98,-99.99,,,0.21,meteohub,2013-02-23 02:22:00,
2013-02-22 21:27:00,30.4,29.8,30.22,SSE,158,0.0,0.0,98,-99.99,,,0.21,meteohub,2013-02-23 02:27:00,
2013-02-22 21:32:00,30.4,29.8,30.22,SSE,158,0.0,0.0,98,-99.99,,,0.21,meteohub,2013-02-23 02:32:00,
2013-02-22 21:37:00,30.4,29.8,30.22,SSE,158,0.0,0.0,98,-99.99,,,0.21,meteohub,2013-02-23 02:37:00,
2013-02-22 21:42:00,30.4,29.8,30.22,SSE,158,0.0,0.0,98,-99.99,,,0.21,meteohub,2013-02-23 02:42:00,
2013-02-22 21:47:00,30.4,29.8,30.22,SSE,158,0.0,0.0,98,-99.99,,,0.21,meteohub,2013-02-23 02:47:00,
2013-02-22 21:52:00,30.4,29.8,30.22,SSE,158,0.0,0.0,98,-99.99,,,0.21,meteohub,2013-02-23 02:52:00,
2013-02-22 21:57:00,30.4,29.8,30.22,SSE,158,0.0,0.0,98,-99.99,,,0.21,meteohub,2013-02-23 02:57:00,
2013-02-22 22:02:00,30.4,29.8,30.22,SSE,158,0.0,0.0,98,-99.99,,,0.21,meteohub,2013-02-23 03:02:00,
2013-02-22 22:07:00,30.4,29.8,30.22,SSE,158,0.0,0.0,98,-99.99,,,0.21,meteohub,2013-02-23 03:07:00,
2013-02-22 22:12:00,30.4,29.8,30.22,SSE,158,0.0,0.0,98,-99.99,,,0.21,meteohub,2013-02-23 03:12:00,
2013-02-22 22:17:00,30.2,29.7,30.22,SSE,158,0.0,0.0,98,-99.99,,,0.21,meteohub,2013-02-23 03:17:00,
2013-02-22 22:22:00,30.2,29.7,30.22,SSE,158,0.0,0.0,98,-99.99,,,0.21,meteohub,2013-02-23 03:22:00,
2013-02-22 22:27:00,30.2,29.7,30.22,SSE,158,0.0,0.0,98,-99.99,,,0.21,meteohub,2013-02-23 03:27:00,
2013-02-22 22:32:00,30.2,29.7,30.19,SSE,158,0.0,0.0,98,-99.99,,,0.21,meteohub,2013-02-23 03:32:00,
2013-02-22 22:37:00,30.2,29.7,30.19,SSE,158,0.0,0.0,98,-99.99,,,0.21,meteohub,2013-02-23 03:37:00,
2013-02-22 22:42:00,30.2,29.7,30.19,SSE,158,0.0,0.0,98,-99.99,,,0.21,meteohub,2013-02-23 03:42:00,
2013-02-22 22:47:00,30.2,29.7,30.19,SSE,158,0.0,0.0,98,-99.99,,,0.21,meteohub,2013-02-23 03:47:00,
2013-02-22 22:52:00,30.2,29.7,30.19,SSE,158,0.0,0.0,98,-99.99,,,0.21,meteohub,2013-02-23 03:52:00,
2013-02-22 22:57:00,30.2,29.7,30.19,SSE,158,0.0,0.0,98,-99.99,,,0.21,meteohub,2013-02-23 03:57:00,
2013-02-22 23:02:00,30.2,29.7,30.19,SSE,158,0.0,0.0,98,-99.99,,,0.21,meteohub,2013-02-23 04:02:00,
2013-02-22 23:07:00,30.2,29.7,30.19,SSE,158,0.0,0.0,98,-99.99,,,0.21,meteohub,2013-02-23 04:07:00,
2013-02-22 23:12:00,30.2,29.7,30.19,SSE,158,0.0,0.0,98,-99.99,,,0.21,meteohub,2013-02-23 04:12:00,
2013-02-22 23:16:00,30.2,29.7,30.19,SSE,158,0.0,0.0,98,-99.99,,,0.21,meteohub,2013-02-23 04:16:00,
2013-02-22 23:22:00,30.2,29.7,30.19,SSE,158,0.0,0.0,98,-99.99,,,0.21,meteohub,2013-02-23 04:22:00,
2013-02-22 23:27:00,30.2,29.7,30.19,SSE,158,0.0,0.0,98,-99.99,,,0.21,meteohub,2013-02-23 04:27:00,
2013-02-22 23:32:00,30.2,29.7,30.19,SSE,158,0.0,0.0,98,-99.99,,,0.21,meteohub,2013-02-23 04:32:00,
2013-02-22 23:37:00,30.2,29.7,30.19,SSE,158,0.0,0.0,98,-99.99,,,0.21,meteohub,2013-02-23 04:37:00,
2013-02-22 23:41:00,30.0,29.5,30.19,SSE,158,0.0,0.0,98,-99.99,,,0.21,meteohub,2013-02-23 04:41:00,
2013-02-22 23:47:00,30.0,29.5,30.19,SSE,158,0.0,0.0,98,-99.99,,,0.21,meteohub,2013-02-23 04:47:00,
2013-02-22 23:52:00,30.2,29.7,30.19,SSE,158,0.0,0.0,98,-99.99,,,0.21,meteohub,2013-02-23 04:52:00,
2013-02-22 23:57:00,30.6,30.0,30.18,SSE,158,0.0,0.0,98,-99.99,,,0.21,meteohub,2013-02-23 04:57:00,